Owen Sound, Canada
Current Conditions -  °F | °C
As of 9:06 AM on Monday 24 Nov 2014 (Local Time) from CYVV Reporting Station
Light Rain Light Rain  
Wind Chill: 12°   Ceiling: 500
Heat Index: 12°   Visibility: 4mi
Dew Point: 11°   Wind: 25mph
Humidity: 94%   Direction: 220°SW
Pressure: 29.02"   Gusts: 39mph
Location:  44.56°N, 80.94°W
Report Text: CYVV 241406Z 22022G34KT 4SM -RA BR BKN005 OVC012 12/11 A2902 RMK SF7SC1 SLP829 DENSITY ALT 1500FT
Loading
Personal Weather Stations






























Interactive Weather Map New forecast layout! Learn more

10-Day Weather Forecast

Advertisements
Track Severe Weather on mobile